createdAt,value
2023-01-08T00:00:35.611Z,1.41
2023-01-08T00:03:50.240Z,1.44
2023-01-08T00:07:02.737Z,1.51
2023-01-08T00:10:15.957Z,1.63
2023-01-08T00:13:28.587Z,1.68
2023-01-08T00:16:40.971Z,1.66
2023-01-08T00:19:53.211Z,1.74
2023-01-08T00:23:05.490Z,1.73
2023-01-08T00:26:19.745Z,1.68
2023-01-08T00:29:33.040Z,1.71
2023-01-08T00:32:45.272Z,1.74
2023-01-08T00:35:58.837Z,1.81
2023-01-08T00:39:11.151Z,1.81
2023-01-08T00:42:23.413Z,1.84
2023-01-08T00:45:35.747Z,1.73
2023-01-08T00:48:47.998Z,1.71
2023-01-08T00:52:00.420Z,1.72
2023-01-08T00:55:14.410Z,1.78
2023-01-08T00:58:26.582Z,1.74
2023-01-08T01:01:39.012Z,1.74
2023-01-08T01:04:51.346Z,1.61
2023-01-08T01:08:04.198Z,1.62
2023-01-08T01:11:21.928Z,1.60
2023-01-08T01:14:34.094Z,1.69
2023-01-08T01:17:49.101Z,1.61
2023-01-08T01:21:01.708Z,1.56
2023-01-08T01:24:17.011Z,1.48
2023-01-08T01:27:29.306Z,1.46
2023-01-08T01:30:41.561Z,1.49
2023-01-08T01:33:54.271Z,1.57
2023-01-08T01:37:07.557Z,1.53
2023-01-08T01:40:20.437Z,1.46
2023-01-08T01:43:49.666Z,1.46
2023-01-08T01:47:01.819Z,1.44
2023-01-08T01:50:19.850Z,1.40
2023-01-08T01:53:36.759Z,1.39
2023-01-08T01:56:49.917Z,1.35
2023-01-08T02:00:04.692Z,1.28
2023-01-08T02:03:20.912Z,1.27
2023-01-08T02:06:41.836Z,1.26
2023-01-08T02:10:01.389Z,1.20
2023-01-08T02:13:20.538Z,1.22
2023-01-08T02:16:39.617Z,1.16
2023-01-08T02:19:56.119Z,1.08
2023-01-08T02:23:26.671Z,1.08
2023-01-08T02:26:40.671Z,1.05
2023-01-08T02:29:54.095Z,1.04
2023-01-08T02:33:06.423Z,1.04
2023-01-08T02:36:44.332Z,1.05
2023-01-08T02:40:10.143Z,1.05
2023-01-08T02:43:28.178Z,0.99
2023-01-08T02:46:44.030Z,0.99
2023-01-08T02:50:01.860Z,1.06
2023-01-08T02:53:19.412Z,1.10
2023-01-08T02:56:36.543Z,1.01
2023-01-08T02:59:49.181Z,1.03
2023-01-08T03:03:08.448Z,0.93
2023-01-08T03:06:23.283Z,0.95
2023-01-08T03:09:35.582Z,0.96
2023-01-08T03:13:02.914Z,0.86
2023-01-08T03:16:16.101Z,0.73
2023-01-08T03:19:33.457Z,0.72
2023-01-08T03:22:51.240Z,0.79
2023-01-08T03:26:05.414Z,0.71
2023-01-08T03:29:24.401Z,0.74
2023-01-08T03:32:38.287Z,0.74
2023-01-08T03:35:54.891Z,0.65
2023-01-08T03:39:12.654Z,0.63
2023-01-08T03:42:26.648Z,0.62
2023-01-08T03:45:40.494Z,0.64
2023-01-08T03:48:54.523Z,0.66
2023-01-08T03:52:07.081Z,0.59
2023-01-08T03:55:19.593Z,0.57
2023-01-08T03:58:31.729Z,0.52
2023-01-08T04:01:44.288Z,0.48
2023-01-08T04:04:56.846Z,0.55
2023-01-08T04:08:09.425Z,0.62
2023-01-08T04:11:21.628Z,0.65
2023-01-08T04:14:33.782Z,0.66
2023-01-08T04:17:46.175Z,0.55
2023-01-08T04:20:58.530Z,0.48
2023-01-08T04:24:11.313Z,0.48
2023-01-08T04:27:23.627Z,0.45
2023-01-08T04:30:35.783Z,0.39
2023-01-08T04:33:48.044Z,0.35
2023-01-08T04:37:00.364Z,0.31
2023-01-08T04:40:15.716Z,0.29
2023-01-08T04:43:28.024Z,0.28
2023-01-08T04:46:40.465Z,0.26
2023-01-08T04:49:53.261Z,0.23
2023-01-08T04:53:06.785Z,0.30
2023-01-08T04:56:19.313Z,0.27
2023-01-08T04:59:31.788Z,0.31
2023-01-08T05:02:44.666Z,0.28
2023-01-08T05:05:57.422Z,0.20
2023-01-08T05:09:10.026Z,0.20
2023-01-08T05:12:22.297Z,0.20
2023-01-08T05:15:34.751Z,0.16
2023-01-08T05:18:47.109Z,0.18
2023-01-08T05:21:59.228Z,0.19
2023-01-08T05:25:12.805Z,0.19
2023-01-08T05:28:24.984Z,0.03
2023-01-08T05:31:37.317Z,0.08
2023-01-08T05:34:50.510Z,0.09
2023-01-08T05:38:05.446Z,-0.02
2023-01-08T05:41:18.229Z,0.02
2023-01-08T05:44:30.405Z,0.02
2023-01-08T05:47:42.933Z,-0.05
2023-01-08T05:50:56.619Z,0.03
2023-01-08T05:54:08.934Z,0.05
2023-01-08T05:57:21.123Z,-0.02
2023-01-08T06:00:33.346Z,0.00
2023-01-08T06:03:46.395Z,-0.13
2023-01-08T06:06:58.835Z,-0.13
2023-01-08T06:10:12.598Z,-0.10
2023-01-08T06:13:24.747Z,-0.09
2023-01-08T06:16:37.189Z,-0.14
2023-01-08T06:19:49.537Z,-0.38
2023-01-08T06:23:02.882Z,-0.40
2023-01-08T06:26:15.232Z,-0.38
2023-01-08T06:29:27.567Z,-0.46
2023-01-08T06:32:39.759Z,-0.44
2023-01-08T06:35:51.853Z,-0.33
2023-01-08T06:39:03.987Z,-0.38
2023-01-08T06:42:16.354Z,-0.41
2023-01-08T06:45:28.593Z,-0.51
2023-01-08T06:48:40.789Z,-0.43
2023-01-08T06:51:53.260Z,-0.50
2023-01-08T06:55:06.175Z,-0.51
2023-01-08T06:58:19.733Z,-0.56
2023-01-08T07:01:32.124Z,-0.56
2023-01-08T07:04:44.755Z,-0.59
2023-01-08T07:07:57.207Z,-0.50
2023-01-08T07:11:11.589Z,-0.42
2023-01-08T07:14:23.807Z,-0.35
2023-01-08T07:17:38.212Z,-0.26
2023-01-08T07:20:50.539Z,-0.23
2023-01-08T07:24:04.102Z,-0.04
2023-01-08T07:27:16.231Z,0.04
2023-01-08T07:30:30.319Z,0.04
2023-01-08T07:33:42.864Z,0.13
2023-01-08T07:36:55.025Z,0.19
2023-01-08T07:40:07.426Z,0.18
2023-01-08T07:43:20.087Z,0.25
2023-01-08T07:46:32.483Z,0.31
2023-01-08T07:49:44.697Z,0.39
2023-01-08T07:52:57.097Z,0.31
2023-01-08T07:56:12.940Z,0.20
2023-01-08T07:59:25.214Z,0.19
2023-01-08T08:02:37.612Z,0.28
2023-01-08T08:05:50.037Z,0.27
2023-01-08T08:09:04.760Z,0.26
2023-01-08T08:12:17.342Z,0.28
2023-01-08T08:15:29.591Z,0.43
2023-01-08T08:18:41.824Z,0.47
2023-01-08T08:21:54.164Z,0.49
2023-01-08T08:25:06.317Z,0.56
2023-01-08T08:28:19.372Z,0.65
2023-01-08T08:31:31.719Z,0.59
2023-01-08T08:34:43.968Z,0.73
2023-01-08T08:37:56.498Z,0.80
2023-01-08T08:41:08.975Z,0.84
2023-01-08T08:44:21.224Z,0.91
2023-01-08T08:47:33.545Z,1.05
2023-01-08T08:50:46.032Z,1.15
2023-01-08T08:53:58.311Z,1.25
2023-01-08T08:57:10.400Z,1.43
2023-01-08T09:00:24.398Z,1.49
2023-01-08T09:03:37.096Z,1.64
2023-01-08T09:06:49.318Z,1.82
2023-01-08T09:10:01.684Z,1.90
2023-01-08T09:13:14.038Z,2.01
2023-01-08T09:16:26.477Z,2.12
2023-01-08T09:19:39.107Z,2.34
2023-01-08T09:22:51.340Z,2.55
2023-01-08T09:26:08.794Z,2.64
2023-01-08T09:29:21.056Z,2.74
2023-01-08T09:32:33.177Z,2.85
2023-01-08T09:35:47.530Z,2.93
2023-01-08T09:38:59.562Z,3.01
2023-01-08T09:42:15.317Z,3.16
2023-01-08T09:45:32.507Z,3.27
2023-01-08T09:48:47.623Z,3.26
2023-01-08T09:52:00.929Z,3.44
2023-01-08T09:55:19.028Z,3.54
2023-01-08T09:58:39.690Z,3.62
2023-01-08T10:01:53.226Z,3.61
2023-01-08T10:05:07.301Z,3.62
2023-01-08T10:08:21.963Z,3.69
2023-01-08T10:11:39.795Z,3.79
2023-01-08T10:14:54.485Z,3.85
2023-01-08T10:18:11.678Z,3.84
2023-01-08T10:21:25.734Z,3.89
2023-01-08T10:24:43.751Z,3.87
2023-01-08T10:28:00.708Z,3.90
2023-01-08T10:31:18.174Z,3.91
2023-01-08T10:34:46.096Z,3.96
2023-01-08T10:37:58.206Z,4.03
2023-01-08T10:41:15.219Z,4.18
2023-01-08T10:44:27.148Z,4.29
2023-01-08T10:47:42.479Z,4.37
2023-01-08T10:50:54.667Z,4.51
2023-01-08T10:54:19.398Z,4.51
2023-01-08T10:57:34.964Z,4.52
2023-01-08T11:00:47.613Z,4.56
2023-01-08T11:04:03.273Z,4.55
2023-01-08T11:07:24.768Z,4.64
2023-01-08T11:10:39.487Z,4.72
2023-01-08T11:14:03.373Z,4.78
2023-01-08T11:17:18.951Z,4.74
2023-01-08T11:20:35.007Z,4.75
2023-01-08T11:23:49.091Z,4.80
2023-01-08T11:27:07.814Z,4.79
2023-01-08T11:30:25.401Z,4.81
2023-01-08T11:33:41.418Z,4.98
2023-01-08T11:36:59.403Z,4.98
2023-01-08T11:40:20.869Z,5.05
2023-01-08T11:43:41.025Z,5.20
2023-01-08T11:47:00.426Z,5.65
2023-01-08T11:50:25.972Z,6.02
2023-01-08T11:53:42.632Z,6.23
2023-01-08T11:57:12.842Z,6.48
2023-01-08T12:00:42.865Z,6.61
2023-01-08T12:04:02.473Z,6.75
2023-01-08T12:07:22.355Z,6.84
2023-01-08T12:10:52.729Z,6.83
2023-01-08T12:14:43.603Z,6.93
2023-01-08T12:18:20.762Z,6.93
2023-01-08T12:21:37.944Z,6.98
2023-01-08T12:25:01.635Z,7.00
2023-01-08T12:28:46.825Z,6.79
2023-01-08T12:32:16.897Z,6.94
2023-01-08T12:35:33.318Z,7.06
2023-01-08T12:38:50.824Z,7.08
2023-01-08T12:42:08.315Z,7.13
2023-01-08T12:45:27.624Z,7.11
2023-01-08T12:48:42.612Z,7.06
2023-01-08T12:52:00.786Z,7.00
2023-01-08T12:55:24.956Z,6.96
2023-01-08T12:58:58.789Z,6.92
2023-01-08T13:02:20.058Z,6.96
2023-01-08T13:05:42.251Z,7.00
2023-01-08T13:09:00.510Z,7.06
2023-01-08T13:12:13.705Z,7.12
2023-01-08T13:15:31.577Z,7.13
2023-01-08T13:18:44.323Z,7.14
2023-01-08T13:22:02.514Z,7.15
2023-01-08T13:25:37.432Z,7.12
2023-01-08T13:28:51.991Z,7.16
2023-01-08T13:32:03.962Z,7.23
2023-01-08T13:35:31.498Z,7.25
2023-01-08T13:38:44.151Z,7.23
2023-01-08T13:42:28.782Z,7.21
2023-01-08T13:45:41.852Z,7.16
2023-01-08T13:49:02.108Z,7.16
2023-01-08T13:52:35.601Z,7.16
2023-01-08T13:55:53.373Z,7.06
2023-01-08T13:59:05.741Z,7.03
2023-01-08T14:02:37.655Z,6.97
2023-01-08T14:05:51.238Z,6.94
2023-01-08T14:09:05.979Z,6.90
2023-01-08T14:12:22.137Z,6.80
2023-01-08T14:15:37.011Z,6.72
2023-01-08T14:18:50.071Z,6.63
2023-01-08T14:22:07.013Z,6.61
2023-01-08T14:25:25.490Z,6.53
2023-01-08T14:28:37.679Z,6.44
2023-01-08T14:31:57.426Z,6.41
2023-01-08T14:35:11.447Z,6.34
2023-01-08T14:38:24.222Z,6.17
2023-01-08T14:41:52.122Z,6.06
2023-01-08T14:45:09.244Z,5.98
2023-01-08T14:48:24.583Z,5.87
2023-01-08T14:51:38.625Z,5.71
2023-01-08T14:54:55.402Z,5.62
2023-01-08T14:58:07.911Z,5.52
2023-01-08T15:01:26.773Z,5.39
2023-01-08T15:04:39.232Z,5.27
2023-01-08T15:08:04.556Z,5.25
2023-01-08T15:11:26.337Z,5.10
2023-01-08T15:14:39.617Z,4.93
2023-01-08T15:17:51.805Z,4.80
2023-01-08T15:21:04.955Z,4.78
2023-01-08T15:24:27.961Z,4.63
2023-01-08T15:27:41.148Z,4.46
2023-01-08T15:30:54.566Z,4.26
2023-01-08T15:34:07.553Z,4.32
2023-01-08T15:37:21.219Z,4.26
2023-01-08T15:40:33.790Z,4.17
2023-01-08T15:43:46.104Z,4.09
2023-01-08T15:46:59.245Z,4.05
2023-01-08T15:50:13.809Z,4.09
2023-01-08T15:53:27.922Z,4.00
2023-01-08T15:56:40.171Z,4.07
2023-01-08T15:59:52.428Z,4.12
2023-01-08T16:03:04.694Z,4.03
2023-01-08T16:06:18.937Z,3.92
2023-01-08T16:09:31.184Z,3.87
2023-01-08T16:12:43.579Z,3.88
2023-01-08T16:15:56.230Z,3.86
2023-01-08T16:19:08.490Z,3.72
2023-01-08T16:22:20.836Z,3.67
2023-01-08T16:25:33.090Z,3.67
2023-01-08T16:28:45.885Z,3.65
2023-01-08T16:31:58.259Z,3.58
2023-01-08T16:35:11.721Z,3.46
2023-01-08T16:38:25.071Z,3.42
2023-01-08T16:41:37.534Z,3.26
2023-01-08T16:44:49.753Z,3.14
2023-01-08T16:48:03.016Z,3.12
2023-01-08T16:51:16.009Z,3.12
2023-01-08T16:54:28.226Z,3.04
2023-01-08T16:57:40.882Z,2.93
2023-01-08T17:00:53.345Z,2.90
2023-01-08T17:04:06.142Z,2.95
2023-01-08T17:07:20.540Z,2.93
2023-01-08T17:10:34.877Z,3.13
2023-01-08T17:13:47.870Z,2.98
2023-01-08T17:17:00.262Z,2.89
2023-01-08T17:20:15.394Z,2.81
2023-01-08T17:23:28.929Z,2.78
2023-01-08T17:26:41.671Z,2.73
2023-01-08T17:29:53.982Z,2.76
2023-01-08T17:33:06.278Z,2.72
2023-01-08T17:36:20.882Z,2.71
2023-01-08T17:39:33.225Z,2.63
2023-01-08T17:42:45.656Z,2.68
2023-01-08T17:45:58.118Z,2.59
2023-01-08T17:49:11.394Z,2.71
2023-01-08T17:52:24.365Z,2.70
2023-01-08T17:55:37.112Z,2.75
2023-01-08T17:58:49.877Z,2.87
2023-01-08T18:02:02.415Z,2.81
2023-01-08T18:05:18.140Z,2.90
2023-01-08T18:08:30.342Z,2.92
2023-01-08T18:11:42.897Z,2.83
2023-01-08T18:14:55.251Z,2.88
2023-01-08T18:18:07.766Z,2.80
2023-01-08T18:21:20.025Z,2.80
2023-01-08T18:24:32.501Z,2.71
2023-01-08T18:27:44.932Z,2.75
2023-01-08T18:30:57.153Z,2.84
2023-01-08T18:34:09.779Z,2.89
2023-01-08T18:37:23.196Z,2.86
2023-01-08T18:40:35.549Z,2.97
2023-01-08T18:43:47.913Z,2.94
2023-01-08T18:47:00.134Z,2.85
2023-01-08T18:50:14.864Z,2.81
2023-01-08T18:53:27.388Z,2.80
2023-01-08T18:56:41.370Z,2.80
2023-01-08T18:59:54.141Z,2.78
2023-01-08T19:03:08.690Z,2.84
2023-01-08T19:06:22.613Z,2.85
2023-01-08T19:09:34.858Z,2.78
2023-01-08T19:12:47.345Z,2.74
2023-01-08T19:16:00.985Z,2.76
2023-01-08T19:19:13.245Z,2.74
2023-01-08T19:22:26.860Z,2.67
2023-01-08T19:25:39.560Z,2.67
2023-01-08T19:28:52.212Z,2.59
2023-01-08T19:32:04.831Z,2.43
2023-01-08T19:35:17.911Z,2.44
2023-01-08T19:38:30.512Z,2.43
2023-01-08T19:41:57.491Z,2.51
2023-01-08T19:45:11.042Z,2.58
2023-01-08T19:48:23.545Z,2.54
2023-01-08T19:51:37.310Z,2.56
2023-01-08T19:54:50.016Z,2.62
2023-01-08T19:58:05.142Z,2.68
2023-01-08T20:01:19.997Z,2.65
2023-01-08T20:04:32.812Z,2.71
2023-01-08T20:07:45.351Z,2.71
2023-01-08T20:10:57.783Z,2.62
2023-01-08T20:14:10.773Z,2.65
2023-01-08T20:17:25.200Z,2.72
2023-01-08T20:20:37.736Z,2.72
2023-01-08T20:23:51.251Z,2.69
2023-01-08T20:27:03.526Z,2.63
2023-01-08T20:30:19.023Z,2.72
2023-01-08T20:33:31.351Z,2.89
2023-01-08T20:36:44.325Z,2.98
2023-01-08T20:39:56.988Z,2.76
2023-01-08T20:43:09.509Z,2.54
2023-01-08T20:46:22.936Z,2.46
2023-01-08T20:49:35.991Z,2.51
2023-01-08T20:52:48.265Z,2.55
2023-01-08T20:56:01.955Z,2.56
2023-01-08T20:59:14.512Z,2.63
2023-01-08T21:02:26.782Z,2.67
2023-01-08T21:05:39.760Z,2.65
2023-01-08T21:08:56.975Z,2.60
2023-01-08T21:12:07.970Z,2.68
2023-01-08T21:15:21.801Z,2.62
2023-01-08T21:18:34.655Z,2.65
2023-01-08T21:21:47.257Z,2.70
2023-01-08T21:24:59.741Z,2.67
2023-01-08T21:28:12.509Z,2.61
2023-01-08T21:31:28.910Z,2.61
2023-01-08T21:34:41.776Z,2.55
2023-01-08T21:37:54.401Z,2.53
2023-01-08T21:41:15.324Z,2.52
2023-01-08T21:44:44.174Z,2.50
2023-01-08T21:47:58.546Z,2.55
2023-01-08T21:51:13.841Z,2.61
2023-01-08T21:54:26.212Z,2.61
2023-01-08T21:57:44.009Z,2.58
2023-01-08T22:00:56.908Z,2.55
2023-01-08T22:04:09.869Z,2.58
2023-01-08T22:07:23.099Z,2.54
2023-01-08T22:10:35.550Z,2.59
2023-01-08T22:13:47.955Z,2.49
2023-01-08T22:17:00.183Z,2.50
2023-01-08T22:20:17.667Z,2.56
2023-01-08T22:23:29.906Z,2.54
2023-01-08T22:26:44.736Z,2.55
2023-01-08T22:29:56.983Z,2.60
2023-01-08T22:33:09.266Z,2.68
2023-01-08T22:36:21.847Z,2.70
2023-01-08T22:39:34.640Z,2.68
2023-01-08T22:42:46.946Z,2.62
2023-01-08T22:46:02.643Z,2.71
2023-01-08T22:49:16.824Z,2.57
2023-01-08T22:52:29.080Z,2.65
2023-01-08T22:55:41.523Z,2.73
2023-01-08T22:58:53.806Z,2.77
2023-01-08T23:02:06.230Z,2.82
2023-01-08T23:05:18.633Z,2.81
2023-01-08T23:08:30.836Z,2.76
2023-01-08T23:11:43.271Z,2.74
2023-01-08T23:14:55.608Z,2.60
2023-01-08T23:18:07.907Z,2.68
2023-01-08T23:21:23.401Z,2.68
2023-01-08T23:24:36.016Z,2.67
2023-01-08T23:27:48.531Z,2.64
2023-01-08T23:31:00.769Z,2.63
2023-01-08T23:34:14.131Z,2.64
2023-01-08T23:37:27.034Z,2.63
2023-01-08T23:40:39.273Z,2.64
2023-01-08T23:43:52.280Z,2.58
2023-01-08T23:47:06.265Z,2.52
2023-01-08T23:50:19.843Z,2.50
2023-01-08T23:53:32.272Z,2.48
2023-01-08T23:56:45.585Z,2.47
